Aeroporto :
LOGIN :

Iscrizione | Disclaimer

   EN    FR    IT 

 










Sommario :    VFR   VFR Marginale   IFR   IFR Intensivo   IFR Molto Intensivo
Visibilità : 
Base nubi : 
>= 8 km
>= 3000ft
5 / 8 km
1000 / 3000 ft
1500m / 5 km
500 / 1000 ft
800 / 1500m
200 / 500 ft
< 800m
< 200 ft
Simboli :   Temporali  Nebbia  Neve Forte  Precipitazioni Forti  Vento > 20 kt
SIGMETs :   Varie  Temporali  Ghiacco  Turbolenza  Onda orograficha  Ceneri Vulcaniche







- Altitudine del aeroporto : 1400 ft


LSME - Luzern Emmen

ULTIMO METAR :
  • 130150Z AUTO 00000KT 9999NDV BKN030 M01/M04 Q1016 RMK

METARs OBSOLETI :
  • 130120Z AUTO 00000KT 9999NDV BKN031 M02/M03 Q1016 RMK
  • 130050Z AUTO 00000KT 8000NDV OVC031 M02/M03 Q1017 RMK
  • 130020Z AUTO VRB01KT 6000NDV BKN031 M02/M03 Q1017 RMK
  • 122350Z AUTO VRB01KT 6000NDV SCT031 M03/M04 Q1017 RMK
  • 122320Z AUTO 00000KT 9000NDV BKN032 M02/M03 Q1017 RMK

Previsioni scadute.
Nessun NOTAM noto per questo aeroporto.



MetMap, La meteo Aeronautica in un colpo d'occhio ! - Copyright ORBIFLY Dicembre 2007 - Disclaimer

ORBIFLY MET'MAP TEAM :

Programmazione e sviluppo : Alexandra Zaïnal
Concezione e sviluppo : Baudouin d'Aumeries
Co-Programmazione e sviluppo : Marc-Olivier Méhu
Supporto tecnico e logistico : Manuel Goepfert
Aiuto per la traduzione : Arnaldo La Scala

Contatto : metmap@orbifly.com




FONTI E CREDITI :

   NOAA